| time (UTC) | temp F | wind direction | speed MPH | gust MPH | rain 1hr in | rain 24hr in | rain mn in | humidity % | barometer mb |
| 20260508135516 | 60 | 13 | 3.0 | 6.0 | 0.00 | 0.19 | 0.01 | 54 | 1019.7 |
| 20260508134536 | 59 | 36 | 3.0 | 6.0 | 0.00 | 0.19 | 0.01 | 56 | 1019.7 |
| 20260508133536 | 59 | 43 | 3.0 | 7.0 | 0.00 | 0.19 | 0.01 | 59 | 1019.7 |
| 20260508132536 | 58 | 21 | 2.0 | 4.0 | 0.00 | 0.19 | 0.01 | 68 | 1019.6 |
| 20260508131556 | 57 | 316 | 2.0 | 4.0 | 0.00 | 0.20 | 0.01 | 67 | 1019.7 |
| 20260508130536 | 56 | 9 | 3.0 | 10.0 | 0.00 | 0.20 | 0.01 | 65 | 1019.5 |
| 20260508125516 | 56 | 35 | 3.0 | 6.0 | 0.00 | 0.20 | 0.01 | 69 | 1019.4 |
| 20260508124516 | 56 | 11 | 2.0 | 5.0 | 0.00 | 0.21 | 0.01 | 70 | 1019.2 |
| 20260508123536 | 56 | 7 | 1.0 | 4.0 | 0.00 | 0.23 | 0.01 | 73 | 1019.1 |
| 20260508122556 | 56 | 14 | 2.0 | 4.0 | 0.00 | 0.24 | 0.01 | 74 | 1019.0 |
| 20260508115536 | 52 | 342 | 2.0 | 4.0 | 0.00 | 0.40 | 0.01 | 82 | 1018.8 |
| 20260508114516 | 52 | 350 | 2.0 | 4.0 | 0.00 | 0.41 | 0.01 | 82 | 1018.7 |
| 20260508113516 | 53 | 357 | 1.0 | 4.0 | 0.00 | 0.42 | 0.01 | 82 | 1018.5 |
| 20260508112516 | 52 | 357 | 2.0 | 4.0 | 0.00 | 0.43 | 0.01 | 83 | 1018.4 |
| 20260508111536 | 52 | 359 | 1.0 | 2.0 | 0.00 | 0.44 | 0.01 | 83 | 1018.2 |
| 20260508110516 | 51 | 358 | 2.0 | 4.0 | 0.00 | 0.44 | 0.01 | 82 | 1018.1 |
| 20260508105516 | 51 | 359 | 3.0 | 5.0 | 0.00 | 0.44 | 0.01 | 82 | 1017.9 |
| 20260508104517 | 51 | 345 | 2.0 | 6.0 | 0.00 | 0.44 | 0.01 | 82 | 1017.8 |
| 20260508103515 | 51 | 341 | 2.0 | 4.0 | 0.00 | 0.44 | 0.01 | 84 | 1017.5 |
| 20260508102556 | 51 | 322 | 1.0 | 3.0 | 0.00 | 0.44 | 0.01 | 85 | 1017.3 |
| 20260508101516 | 51 | 322 | 1.0 | 2.0 | 0.00 | 0.44 | 0.01 | 86 | 1017.4 |
| 20260508100536 | 51 | 321 | 0.0 | 3.0 | 0.00 | 0.44 | 0.01 | 86 | 1017.5 |
| 20260508095536 | 51 | 0.0 | 1.0 | 0.00 | 0.44 | 0.01 | 87 | 1017.5 | |
| 20260508094536 | 51 | 342 | 1.0 | 2.0 | 0.00 | 0.44 | 0.01 | 87 | 1017.4 |
| 20260508092536 | 51 | 358 | 1.0 | 3.0 | 0.00 | 0.45 | 0.01 | 87 | 1017.3 |
| 20260508091556 | 51 | 359 | 0.0 | 1.0 | 0.00 | 0.45 | 0.01 | 87 | 1017.3 |
| 20260508090515 | 51 | 1 | 0.0 | 2.0 | 0.01 | 0.45 | 0.01 | 87 | 1017.2 |
| 20260508085515 | 52 | 3 | 0.0 | 1.0 | 0.01 | 0.46 | 0.01 | 87 | 1017.2 |
| 20260508084515 | 52 | 4 | 0.0 | 2.0 | 0.01 | 0.46 | 0.01 | 87 | 1017.2 |
| 20260508083556 | 52 | 5 | 0.0 | 1.0 | 0.01 | 0.47 | 0.01 | 87 | 1017.0 |
| 20260508082536 | 52 | 5 | 0.0 | 2.0 | 0.01 | 0.47 | 0.01 | 87 | 1016.9 |
| 20260508081536 | 52 | 5 | 1.0 | 2.0 | 0.01 | 0.48 | 0.01 | 87 | 1016.9 |
| 20260508080535 | 52 | 4 | 0.0 | 1.0 | 0.00 | 0.48 | 0.00 | 87 | 1016.7 |
| 20260508075555 | 52 | 0.0 | 0.0 | 0.00 | 0.49 | 0.00 | 86 | 1016.5 | |
| 20260508074515 | 52 | 4 | 0.0 | 1.0 | 0.00 | 0.51 | 0.00 | 87 | 1016.5 |
| 20260508073515 | 52 | 0.0 | 0.0 | 0.00 | 0.52 | 0.00 | 87 | 1016.3 | |
| 20260508072515 | 52 | 0.0 | 0.0 | 0.00 | 0.53 | 0.00 | 87 | 1016.3 | |
| 20260508071516 | 52 | 0.0 | 0.0 | 0.00 | 0.55 | 0.00 | 87 | 1016.4 | |
| 20260508065535 | 52 | 0.0 | 0.0 | 0.00 | 0.62 | 0.00 | 87 | 1016.2 | |
| 20260508064535 | 53 | 0.0 | 0.0 | 0.00 | 0.65 | 0.00 | 87 | 1016.2 | |
| 20260508063515 | 53 | 0.0 | 0.0 | 0.00 | 0.74 | 0.00 | 87 | 1016.2 | |
| 20260508061535 | 53 | 0.0 | 0.0 | 0.00 | 0.79 | 0.00 | 87 | 1016.3 | |
| 20260508060535 | 53 | 0.0 | 0.0 | 0.00 | 0.83 | 0.00 | 87 | 1016.3 | |
| 20260508055515 | 54 | 0.0 | 0.0 | 0.00 | 0.88 | 0.00 | 87 | 1016.3 | |
| 20260508054535 | 54 | 0.0 | 0.0 | 0.00 | 0.95 | 0.00 | 87 | 1016.2 | |
| 20260508053535 | 54 | 0.0 | 0.0 | 0.00 | 0.96 | 0.00 | 87 | 1016.1 | |
| 20260508052535 | 54 | 0.0 | 0.0 | 0.00 | 0.96 | 0.00 | 87 | 1016.1 | |
| 20260508051515 | 55 | 0.0 | 0.0 | 0.00 | 0.97 | 0.00 | 87 | 1016.0 | |
| 20260508050535 | 55 | 0.0 | 0.0 | 0.00 | 0.97 | 0.00 | 87 | 1015.8 | |
| 20260508045515 | 55 | 0.0 | 0.0 | 0.00 | 0.97 | 0.00 | 87 | 1015.9 | |
| 20260508044515 | 55 | 0.0 | 0.0 | 0.00 | 0.97 | 0.00 | 87 | 1015.9 | |
| 20260508043515 | 55 | 0.0 | 0.0 | 0.00 | 0.97 | 0.00 | 87 | 1015.6 | |
| 20260508042515 | 55 | 0.0 | 0.0 | 0.00 | 0.97 | 0.00 | 87 | 1015.6 | |
| 20260508041555 | 56 | 4 | 0.0 | 2.0 | 0.00 | 0.97 | 0.00 | 86 | 1015.4 |
| 20260508040537 | 56 | 0.0 | 1.0 | 0.00 | 0.97 | 0.00 | 86 | 1015.5 | |
| 20260508035536 | 56 | 4 | 0.0 | 1.0 | 0.00 | 0.97 | 0.97 | 86 | 1015.4 |
| 20260508034636 | 56 | 0.0 | 0.0 | 0.00 | 0.97 | 0.97 | 87 | 1015.5 | |
| 20260508033516 | 56 | 0.0 | 0.0 | 0.00 | 0.98 | 0.97 | 87 | 1015.4 | |
| 20260508032516 | 56 | 4 | 0.0 | 1.0 | 0.00 | 0.98 | 0.97 | 87 | 1015.5 |
| 20260508031516 | 56 | 4 | 0.0 | 2.0 | 0.00 | 0.99 | 0.97 | 87 | 1015.4 |
| 20260508030556 | 56 | 4 | 0.0 | 1.0 | 0.00 | 1.02 | 0.97 | 86 | 1015.4 |
| 20260508025516 | 56 | 4 | 0.0 | 1.0 | 0.00 | 1.11 | 0.97 | 87 | 1015.4 |
| 20260508024516 | 56 | 4 | 1.0 | 2.0 | 0.00 | 1.16 | 0.97 | 86 | 1015.2 |
| 20260508023516 | 56 | 4 | 1.0 | 3.0 | 0.00 | 1.20 | 0.97 | 86 | 1015.0 |
| 20260508022536 | 56 | 4 | 2.0 | 3.0 | 0.00 | 1.24 | 0.97 | 86 | 1015.0 |
| 20260508021536 | 56 | 4 | 2.0 | 3.0 | 0.00 | 1.25 | 0.97 | 86 | 1014.7 |
| 20260508020535 | 56 | 4 | 2.0 | 5.0 | 0.00 | 1.28 | 0.97 | 86 | 1014.4 |
| 20260508015556 | 56 | 12 | 0.0 | 2.0 | 0.00 | 1.31 | 0.97 | 86 | 1014.4 |
| 20260508014516 | 56 | 12 | 1.0 | 2.0 | 0.00 | 1.46 | 0.97 | 86 | 1014.2 |
| 20260508013535 | 56 | 10 | 3.0 | 4.0 | 0.00 | 1.49 | 0.97 | 86 | 1013.9 |
| 20260508012556 | 56 | 5 | 4.0 | 7.0 | 0.00 | 1.49 | 0.97 | 86 | 1013.9 |
| 20260508011536 | 56 | 13 | 3.0 | 4.0 | 0.00 | 1.49 | 0.97 | 86 | 1013.8 |
| 20260508010515 | 56 | 17 | 5.0 | 8.0 | 0.00 | 1.50 | 0.97 | 86 | 1013.8 |
| 20260508005536 | 56 | 335 | 5.0 | 8.0 | 0.00 | 1.54 | 0.97 | 86 | 1013.7 |
| 20260508004536 | 56 | 20 | 2.0 | 7.0 | 0.00 | 1.59 | 0.97 | 86 | 1013.4 |
| 20260508003515 | 56 | 26 | 3.0 | 5.0 | 0.00 | 1.61 | 0.97 | 86 | 1013.0 |
| 20260508002556 | 57 | 14 | 5.0 | 9.0 | 0.01 | 1.61 | 0.97 | 86 | 1012.6 |
| 20260508001535 | 57 | 4 | 2.0 | 9.0 | 0.03 | 1.61 | 0.97 | 86 | 1012.4 |
| 20260508000555 | 57 | 350 | 4.0 | 9.0 | 0.15 | 1.61 | 0.97 | 86 | 1011.9 |
| 20260507235535 | 57 | 324 | 3.0 | 12.0 | 0.15 | 1.61 | 0.97 | 86 | 1011.6 |
| 20260507234515 | 57 | 349 | 5.0 | 13.0 | 0.15 | 1.61 | 0.97 | 86 | 1011.2 |
| 20260507233535 | 57 | 338 | 2.0 | 10.0 | 0.15 | 1.61 | 0.97 | 86 | 1011.2 |
| 20260507232515 | 57 | 0 | 5.0 | 14.0 | 0.14 | 1.60 | 0.96 | 85 | 1010.9 |
| 20260507231515 | 58 | 354 | 2.0 | 11.0 | 0.12 | 1.58 | 0.94 | 85 | 1011.4 |
| 20260507230516 | 59 | 343 | 8.0 | 15.0 | 0.00 | 1.46 | 0.82 | 83 | 1010.8 |
| 20260507225515 | 60 | 17 | 7.0 | 17.0 | 0.00 | 1.46 | 0.82 | 82 | 1010.4 |
| 20260507224516 | 61 | 0 | 10.0 | 18.0 | 0.00 | 1.46 | 0.82 | 82 | 1010.3 |
| 20260507223515 | 62 | 341 | 5.0 | 17.0 | 0.00 | 1.46 | 0.82 | 82 | 1010.2 |
| 20260507222535 | 63 | 349 | 12.0 | 21.0 | 0.00 | 1.46 | 0.82 | 80 | 1010.2 |
| 20260507221535 | 66 | 351 | 12.0 | 24.0 | 0.00 | 1.46 | 0.82 | 76 | 1010.1 |
| 20260507220555 | 74 | 325 | 8.0 | 14.0 | 0.00 | 1.46 | 0.82 | 66 | 1009.9 |
| 20260507215535 | 74 | 203 | 4.0 | 8.0 | 0.00 | 1.46 | 0.82 | 65 | 1009.2 |
| 20260507214515 | 74 | 214 | 3.0 | 7.0 | 0.00 | 1.46 | 0.82 | 66 | 1009.2 |
| 20260507213515 | 75 | 183 | 4.0 | 12.0 | 0.00 | 1.46 | 0.82 | 64 | 1008.9 |
| 20260507212515 | 76 | 257 | 0.0 | 6.0 | 0.00 | 1.46 | 0.82 | 61 | 1008.7 |
| 20260507211515 | 75 | 185 | 3.0 | 12.0 | 0.00 | 1.46 | 0.82 | 64 | 1008.9 |
| 20260507210555 | 75 | 232 | 0.0 | 5.0 | 0.00 | 1.46 | 0.82 | 64 | 1008.7 |
| 20260507205515 | 74 | 223 | 2.0 | 4.0 | 0.00 | 1.46 | 0.82 | 63 | 1009.0 |
| 20260507204535 | 75 | 225 | 1.0 | 13.0 | 0.00 | 1.46 | 0.82 | 61 | 1009.1 |
| 20260507203515 | 75 | 241 | 3.0 | 7.0 | 0.00 | 1.46 | 0.82 | 61 | 1009.2 |
| 20260507202515 | 75 | 236 | 2.0 | 4.0 | 0.00 | 1.46 | 0.82 | 61 | 1009.2 |
| 20260507201515 | 75 | 244 | 3.0 | 7.0 | 0.00 | 1.46 | 0.82 | 62 | 1009.2 |
| 20260507200517 | 75 | 272 | 2.0 | 7.0 | 0.00 | 1.46 | 0.82 | 62 | 1009.4 |
| 20260507195515 | 73 | 240 | 1.0 | 5.0 | 0.00 | 1.46 | 0.82 | 66 | 1009.3 |
| 20260507194557 | 73 | 214 | 1.0 | 3.0 | 0.00 | 1.46 | 0.82 | 66 | 1009.7 |
| 20260507193557 | 73 | 251 | 1.0 | 5.0 | 0.00 | 1.46 | 0.82 | 67 | 1009.8 |
| 20260507192537 | 73 | 214 | 1.0 | 5.0 | 0.00 | 1.46 | 0.82 | 68 | 1009.9 |
| 20260507191517 | 74 | 227 | 2.0 | 5.0 | 0.00 | 1.46 | 0.82 | 65 | 1010.1 |
| 20260507190537 | 73 | 218 | 0.0 | 3.0 | 0.00 | 1.46 | 0.82 | 69 | 1010.3 |
| 20260507184517 | 72 | 251 | 1.0 | 5.0 | 0.00 | 1.46 | 0.82 | 70 | 1010.1 |
| 20260507183517 | 72 | 276 | 2.0 | 4.0 | 0.00 | 1.46 | 0.82 | 74 | 1010.1 |
| 20260507182657 | 71 | 266 | 1.0 | 3.0 | 0.00 | 1.46 | 0.82 | 78 | 1010.1 |
| 20260507181537 | 71 | 268 | 2.0 | 4.0 | 0.00 | 1.46 | 0.82 | 76 | 1010.0 |
| 20260507180516 | 70 | 269 | 2.0 | 4.0 | 0.00 | 1.47 | 0.82 | 80 | 1010.0 |
| 20260507175517 | 69 | 238 | 1.0 | 4.0 | 0.00 | 1.52 | 0.82 | 83 | 1010.4 |
| 20260507174517 | 69 | 272 | 2.0 | 5.0 | 0.00 | 1.52 | 0.82 | 84 | 1010.4 |
| 20260507173517 | 67 | 236 | 0.0 | 3.0 | 0.00 | 1.52 | 0.82 | 85 | 1010.7 |
| 20260507171517 | 66 | 227 | 0.0 | 1.0 | 0.00 | 1.52 | 0.82 | 86 | 1010.3 |
| 20260507170517 | 66 | 244 | 1.0 | 5.0 | 0.00 | 1.52 | 0.82 | 86 | 1010.7 |
| 20260507165517 | 66 | 246 | 1.0 | 5.0 | 0.00 | 1.52 | 0.82 | 86 | 1010.6 |
| 20260507164516 | 65 | 200 | 1.0 | 3.0 | 0.00 | 1.52 | 0.82 | 86 | 1010.6 |
| 20260507163517 | 65 | 215 | 0.0 | 2.0 | 0.00 | 1.52 | 0.82 | 86 | 1010.9 |
| 20260507162556 | 64 | 291 | 2.0 | 8.0 | 0.00 | 1.52 | 0.82 | 86 | 1011.5 |
| 20260507161538 | 65 | 250 | 1.0 | 3.0 | 0.00 | 1.52 | 0.82 | 86 | 1011.4 |
| 20260507160516 | 65 | 261 | 2.0 | 6.0 | 0.00 | 1.52 | 0.82 | 85 | 1011.2 |
| 20260507155516 | 65 | 281 | 1.0 | 5.0 | 0.01 | 1.52 | 0.82 | 85 | 1010.8 |
| 20260507154537 | 64 | 0.0 | 0.0 | 0.01 | 1.52 | 0.82 | 85 | 1010.1 | |
| 20260507153516 | 65 | 0.0 | 0.0 | 0.01 | 1.52 | 0.82 | 85 | 1010.0 | |
| 20260507152516 | 64 | 192 | 0.0 | 2.0 | 0.02 | 1.52 | 0.82 | 85 | 1009.8 |
| 20260507151536 | 64 | 193 | 0.0 | 2.0 | 0.02 | 1.52 | 0.82 | 85 | 1010.0 |
| 20260507150516 | 63 | 0.0 | 0.0 | 0.03 | 1.52 | 0.82 | 85 | 1010.1 | |
| 20260507145516 | 63 | 193 | 0.0 | 1.0 | 0.02 | 1.51 | 0.81 | 85 | 1011.4 |
| 20260507144516 | 63 | 218 | 0.0 | 2.0 | 0.02 | 1.51 | 0.81 | 85 | 1011.8 |
| 20260507143516 | 63 | 196 | 0.0 | 1.0 | 0.02 | 1.51 | 0.81 | 85 | 1011.6 |
| 20260507142536 | 63 | 195 | 0.0 | 2.0 | 0.01 | 1.50 | 0.80 | 85 | 1011.9 |
| 20260507141516 | 63 | 176 | 1.0 | 6.0 | 0.02 | 1.50 | 0.80 | 85 | 1011.8 |
| 20260507140516 | 63 | 189 | 1.0 | 4.0 | 0.01 | 1.49 | 0.79 | 85 | 1011.6 |